Tessenderlo, Belgium
Current Conditions -  °F | °C
As of 8:44 PM on Sunday 21 Dec 2014 (Local Time) from EBDT Reporting Station
Overcast Overcast  
Wind Chill:   Ceiling: 1800
Heat Index:   Visibility: 6mi
Dew Point:   Wind: 14mph
Humidity: 87%   Direction: 220°SW
Pressure: 30.27"   Gusts: 30mph
Location:  51.07°N, 5.09°E
Report Text: EBDT 211944Z AUTO 22012G26KT 9999 SCT014/// BKN018/// OVC036/// 08/06 Q1025 GRN
Loading
Personal Weather Stations






























Interactive Weather Map New forecast layout! Learn more

10-Day Weather Forecast

Advertisements
Track Severe Weather on mobile